Aviation Digital Data Service (ADDS)

Output produced by METARs form (1648 UTC 27 February 2015)
found at http://aviationweather.gov/adds/metars/
 
METAR text: GVAC 271600Z 07024G34KT 5000 HZ NSC 25/14 Q1013 NOSIG
Conditions at: GVAC (SAL ISL/AMILCAR , CV) observed 1600 UTC 27 February 2015
Temperature: 25.0°C (77°F)
Dewpoint: 14.0°C (57°F) [RH = 50%]
Pressure (altimeter): 29.91 inches Hg (1013.0 mb)
Winds: from the ENE (70 degrees) at 28 MPH (24 knots; 12.5 m/s)
gusting to 39 MPH (34 knots; 17.7 m/s)
Visibility: 3 miles (5 km)
Ceiling: unknown
Clouds: missing
Weather: HZ  (haze)

METAR text: GVAC 271500Z 07025KT 5000 HZ NSC 26/14 Q1014 NOSIG
Conditions at: GVAC (SAL ISL/AMILCAR , CV) observed 1500 UTC 27 February 2015
Temperature: 26.0°C (79°F)
Dewpoint: 14.0°C (57°F) [RH = 48%]
Pressure (altimeter): 29.94 inches Hg (1014.0 mb)
Winds: from the ENE (70 degrees) at 29 MPH (25 knots; 13.0 m/s)
Visibility: 3 miles (5 km)
Ceiling: unknown
Clouds: missing
Weather: HZ  (haze)

METAR text: GVAC 271400Z 06022KT 5000M HZ NSC 26/14 Q1015 NOSIG
Conditions at: GVAC (SAL ISL/AMILCAR , CV) observed 1400 UTC 27 February 2015
Temperature: 26.0°C (79°F)
Dewpoint: 14.0°C (57°F) [RH = 48%]
Pressure (altimeter): 29.97 inches Hg (1015.0 mb)
Winds: from the ENE (60 degrees) at 25 MPH (22 knots; 11.4 m/s)
Visibility: 3 miles (5 km)
Ceiling: unknown
Clouds: missing
Weather: HZ  (haze)

METAR text: GVAC 271300Z 06023KT 5000M HZ NSC 25/14 Q1015 NOSIG
Conditions at: GVAC (SAL ISL/AMILCAR , CV) observed 1300 UTC 27 February 2015
Temperature: 25.0°C (77°F)
Dewpoint: 14.0°C (57°F) [RH = 50%]
Pressure (altimeter): 29.97 inches Hg (1015.0 mb)
Winds: from the ENE (60 degrees) at 26 MPH (23 knots; 12.0 m/s)
Visibility: 3 miles (5 km)
Ceiling: unknown
Clouds: missing
Weather: HZ  (haze)

METAR text: GVAC 271200Z 06019KT 5000M HZ FEW015 25/15 Q1016 NOSIG
Conditions at: GVAC (SAL ISL/AMILCAR , CV) observed 1200 UTC 27 February 2015
Temperature: 25.0°C (77°F)
Dewpoint: 15.0°C (59°F) [RH = 54%]
Pressure (altimeter): 30.00 inches Hg (1016.0 mb)
Winds: from the ENE (60 degrees) at 22 MPH (19 knots; 9.9 m/s)
Visibility: 3 miles (5 km)
Ceiling: at least 12,000 feet AGL
Clouds: few clouds at 1500 feet AGL
Weather: HZ  (haze)

METAR text: GVAC 271100Z 07020KT 5000M HZ FEW015 24/15 Q1016 NOSIG
Conditions at: GVAC (SAL ISL/AMILCAR , CV) observed 1100 UTC 27 February 2015
Temperature: 24.0°C (75°F)
Dewpoint: 15.0°C (59°F) [RH = 57%]
Pressure (altimeter): 30.00 inches Hg (1016.0 mb)
Winds: from the ENE (70 degrees) at 23 MPH (20 knots; 10.4 m/s)
Visibility: 3 miles (5 km)
Ceiling: at least 12,000 feet AGL
Clouds: few clouds at 1500 feet AGL
Weather: HZ  (haze)

METAR text: GVAC 271000Z 06019KT 6000 FEW015 22/15 Q1015 NOSIG
Conditions at: GVAC (SAL ISL/AMILCAR , CV) observed 1000 UTC 27 February 2015
Temperature: 22.0°C (72°F)
Dewpoint: 15.0°C (59°F) [RH = 65%]
Pressure (altimeter): 29.97 inches Hg (1015.0 mb)
Winds: from the ENE (60 degrees) at 22 MPH (19 knots; 9.9 m/s)
Visibility: 4 miles (6 km)
Ceiling: at least 12,000 feet AGL
Clouds: few clouds at 1500 feet AGL
Weather: no significant weather observed at this time

METAR text: GVAC 270900Z 06016KT 7000 SCT015 21/15 Q1015 NOSIG
Conditions at: GVAC (SAL ISL/AMILCAR , CV) observed 0900 UTC 27 February 2015
Temperature: 21.0°C (70°F)
Dewpoint: 15.0°C (59°F) [RH = 69%]
Pressure (altimeter): 29.97 inches Hg (1015.0 mb)
Winds: from the ENE (60 degrees) at 18 MPH (16 knots; 8.3 m/s)
Visibility: 4 miles (7 km)
Ceiling: at least 12,000 feet AGL
Clouds: scattered clouds at 1500 feet AGL
Weather: no significant weather observed at this time

METAR text: GVAC 270800Z 05017KT 7000 SCT015 21/15 Q1014 NOSIG
Conditions at: GVAC (SAL ISL/AMILCAR , CV) observed 0800 UTC 27 February 2015
Temperature: 21.0°C (70°F)
Dewpoint: 15.0°C (59°F) [RH = 69%]
Pressure (altimeter): 29.94 inches Hg (1014.0 mb)
Winds: from the NE (50 degrees) at 20 MPH (17 knots; 8.8 m/s)
Visibility: 4 miles (7 km)
Ceiling: at least 12,000 feet AGL
Clouds: scattered clouds at 1500 feet AGL
Weather: no significant weather observed at this time

METAR text: GVAC 270700Z 05015KT 7000 BKN015 20/15 Q1013 NOSIG
Conditions at: GVAC (SAL ISL/AMILCAR , CV) observed 0700 UTC 27 February 2015
Temperature: 20.0°C (68°F)
Dewpoint: 15.0°C (59°F) [RH = 73%]
Pressure (altimeter): 29.91 inches Hg (1013.0 mb)
Winds: from the NE (50 degrees) at 17 MPH (15 knots; 7.8 m/s)
Visibility: 4 miles (7 km)
Ceiling: 1500 feet AGL
Clouds: broken clouds at 1500 feet AGL
Weather: no significant weather observed at this time

METAR text: GVAC 270600Z 05014KT 7000 BKN015 20/16 Q1013 NOSIG
Conditions at: GVAC (SAL ISL/AMILCAR , CV) observed 0600 UTC 27 February 2015
Temperature: 20.0°C (68°F)
Dewpoint: 16.0°C (61°F) [RH = 78%]
Pressure (altimeter): 29.91 inches Hg (1013.0 mb)
Winds: from the NE (50 degrees) at 16 MPH (14 knots; 7.3 m/s)
Visibility: 4 miles (7 km)
Ceiling: 1500 feet AGL
Clouds: broken clouds at 1500 feet AGL
Weather: no significant weather observed at this time

METAR text: GVAC 270500Z 04014KT 7000 BKN016 20/17 Q1014 NOSIG
Conditions at: GVAC (SAL ISL/AMILCAR , CV) observed 0500 UTC 27 February 2015
Temperature: 20.0°C (68°F)
Dewpoint: 17.0°C (63°F) [RH = 83%]
Pressure (altimeter): 29.94 inches Hg (1014.0 mb)
Winds: from the NE (40 degrees) at 16 MPH (14 knots; 7.3 m/s)
Visibility: 4 miles (7 km)
Ceiling: 1600 feet AGL
Clouds: broken clouds at 1600 feet AGL
Weather: no significant weather observed at this time